Time;durP1;ratioP1;P1;durP2;ratioP2;P2;SDS_P1;SDS_P2;PMS_P1;PMS_P2;Temp;Humidity;BMP_temperature;BMP_pressure;BME280_temperature;BME280_humidity;BME280_pressure;Samples;Min_cycle;Max_cycle;Signal;HPM_P1;HPM_P2
2022/07/19 00:01:29;;;;;;;9.65;8.68;;;21.90;99.90;;;;;;4893681;29;20465;-67
2022/07/19 00:03:56;;;;;;;12.10;8.97;;;21.80;99.90;;;;;;4909685;29;20397;-68
2022/07/19 00:06:22;;;;;;;12.15;9.27;;;21.70;99.90;;;;;;4910543;29;20874;-67
2022/07/19 00:08:47;;;;;;;11.10;8.73;;;21.70;99.90;;;;;;4892302;29;20405;-67
2022/07/19 00:11:13;;;;;;;10.00;8.23;;;21.70;99.90;;;;;;4911603;29;20408;-67
2022/07/19 00:13:39;;;;;;;12.47;8.63;;;21.70;99.90;;;;;;4893627;29;20409;-67
2022/07/19 00:16:05;;;;;;;10.73;8.50;;;21.70;99.90;;;;;;4894367;29;20406;-68
2022/07/19 00:18:30;;;;;;;9.70;8.70;;;21.50;99.90;;;;;;4894917;29;20424;-67
2022/07/19 00:20:56;;;;;;;10.20;8.63;;;21.50;99.90;;;;;;4894137;29;20460;-68
2022/07/19 00:23:21;;;;;;;9.93;8.90;;;21.40;99.90;;;;;;4894194;29;20401;-68
2022/07/19 00:25:47;;;;;;;9.80;8.50;;;21.40;99.90;;;;;;4894270;29;20431;-68
2022/07/19 00:28:12;;;;;;;12.02;8.60;;;21.40;99.90;;;;;;4893123;29;20398;-68
2022/07/19 00:30:38;;;;;;;9.87;8.47;;;21.30;99.90;;;;;;4894172;29;20413;-69
2022/07/19 00:33:08;;;;;;;11.60;9.15;;;21.30;99.90;;;;;;4895157;29;20801;-69
2022/07/19 00:35:40;;;;;;;9.02;8.13;;;21.30;99.90;;;;;;4911454;29;20390;-68
2022/07/19 00:38:09;;;;;;;10.37;8.13;;;21.10;99.90;;;;;;4898318;29;20419;-68
2022/07/19 00:40:36;;;;;;;9.43;8.43;;;21.20;99.90;;;;;;4903217;29;20467;-68
2022/07/19 00:43:02;;;;;;;9.73;7.90;;;21.10;99.90;;;;;;4902765;29;20393;-68
2022/07/19 00:45:27;;;;;;;10.67;8.57;;;21.10;99.90;;;;;;4900586;29;20495;-69
2022/07/19 00:47:53;;;;;;;9.93;8.40;;;21.00;99.90;;;;;;4901708;29;20499;-68
2022/07/19 00:50:20;;;;;;;9.82;8.50;;;21.00;99.90;;;;;;4902175;29;20440;-68
2022/07/19 00:52:50;;;;;;;9.63;8.63;;;21.00;99.90;;;;;;4904207;29;20829;-68
2022/07/19 00:55:18;;;;;;;10.07;8.75;;;20.90;99.90;;;;;;4921496;29;20415;-68
2022/07/19 00:57:47;;;;;;;9.43;8.18;;;20.90;99.90;;;;;;4935340;29;20698;-68
2022/07/19 01:00:15;;;;;;;11.00;9.00;;;20.90;99.90;;;;;;4903091;29;20395;-68
2022/07/19 01:02:41;;;;;;;13.43;9.05;;;20.80;99.90;;;;;;4932587;29;20445;-68
2022/07/19 01:05:08;;;;;;;11.20;8.80;;;20.80;99.90;;;;;;4918786;29;20703;-70
2022/07/19 01:07:37;;;;;;;10.10;8.85;;;20.80;99.90;;;;;;4903074;29;20666;-68
2022/07/19 01:10:08;;;;;;;10.45;8.90;;;20.80;99.90;;;;;;4901121;29;20413;-68
2022/07/19 01:12:38;;;;;;;10.50;9.20;;;20.80;99.90;;;;;;4901877;29;20416;-68
2022/07/19 01:15:25;;;;;;;9.52;8.52;;;20.70;99.90;;;;;;4916681;29;20394;-68
2022/07/19 01:17:52;;;;;;;9.88;8.57;;;20.60;99.90;;;;;;4898826;29;20754;-69
2022/07/19 01:20:19;;;;;;;10.30;8.57;;;20.60;99.90;;;;;;4900247;29;20421;-68
2022/07/19 01:22:46;;;;;;;11.05;9.20;;;20.60;99.90;;;;;;4899462;29;20401;-68
2022/07/19 01:25:12;;;;;;;10.48;8.43;;;20.60;99.90;;;;;;4899222;29;20825;-68
2022/07/19 01:27:43;;;;;;;11.40;8.87;;;20.50;99.90;;;;;;4899813;29;20401;-69
2022/07/19 01:30:28;;;;;;;9.63;8.48;;;20.50;99.90;;;;;;4899405;29;20405;-68
2022/07/19 01:32:56;;;;;;;11.38;8.90;;;20.50;99.90;;;;;;4932045;29;20779;-68
2022/07/19 01:35:22;;;;;;;9.68;8.25;;;20.60;99.90;;;;;;4917775;29;20464;-68
2022/07/19 01:37:48;;;;;;;9.85;8.50;;;20.50;99.90;;;;;;4900836;29;20507;-69
2022/07/19 01:40:15;;;;;;;11.27;8.88;;;20.50;99.90;;;;;;4901523;29;20655;-68
2022/07/19 01:42:42;;;;;;;9.60;8.60;;;20.50;99.90;;;;;;4902054;29;20662;-68
2022/07/19 01:45:09;;;;;;;11.95;9.00;;;20.50;99.90;;;;;;4917362;29;20417;-68
2022/07/19 01:47:35;;;;;;;11.15;9.05;;;20.30;99.90;;;;;;4917997;29;20816;-68
2022/07/19 01:50:01;;;;;;;10.90;8.83;;;20.30;99.90;;;;;;4901112;29;20496;-68
2022/07/19 01:52:26;;;;;;;10.53;9.30;;;20.30;99.90;;;;;;4918367;29;20480;-68
2022/07/19 01:54:52;;;;;;;10.93;8.60;;;20.30;99.90;;;;;;4901437;29;20417;-68
2022/07/19 01:57:18;;;;;;;10.82;9.05;;;20.20;99.90;;;;;;4900954;29;20402;-68
2022/07/19 01:59:43;;;;;;;10.87;9.47;;;20.10;99.90;;;;;;4899885;29;20408;-68
2022/07/19 02:02:09;;;;;;;10.02;8.93;;;20.10;99.90;;;;;;4932872;29;20409;-68
2022/07/19 02:04:34;;;;;;;13.27;9.13;;;20.00;99.90;;;;;;4904531;29;20671;-68
2022/07/19 02:07:00;;;;;;;11.82;9.00;;;20.00;99.90;;;;;;4921676;29;20397;-68
2022/07/19 02:09:26;;;;;;;11.30;9.10;;;20.00;99.90;;;;;;4903924;29;20413;-68
2022/07/19 02:11:51;;;;;;;10.18;9.02;;;20.00;99.90;;;;;;4903613;29;20644;-68
2022/07/19 02:14:17;;;;;;;12.37;9.37;;;20.00;99.90;;;;;;4903318;29;20409;-68
2022/07/19 02:16:43;;;;;;;13.40;9.07;;;20.00;99.90;;;;;;4901721;29;20908;-68
2022/07/19 02:19:10;;;;;;;11.23;9.23;;;20.00;99.90;;;;;;4902088;29;20451;-68
2022/07/19 02:21:37;;;;;;;9.23;8.33;;;19.90;99.90;;;;;;4900914;29;20619;-68
2022/07/19 02:24:05;;;;;;;9.90;8.27;;;19.80;99.90;;;;;;4902442;29;20401;-68
2022/07/19 02:26:31;;;;;;;10.35;8.77;;;19.70;99.90;;;;;;4902840;29;20393;-68
2022/07/19 02:28:57;;;;;;;10.40;8.65;;;19.70;99.90;;;;;;4902686;29;20497;-68
2022/07/19 02:31:23;;;;;;;11.43;9.27;;;19.60;99.90;;;;;;4902310;29;20468;-69
2022/07/19 02:33:49;;;;;;;10.07;8.93;;;19.60;99.90;;;;;;4903026;29;20397;-68
2022/07/19 02:36:15;;;;;;;11.15;8.45;;;19.60;99.90;;;;;;4901203;29;20413;-69
2022/07/19 02:38:40;;;;;;;9.73;8.73;;;19.50;99.90;;;;;;4901403;29;20509;-68
2022/07/19 02:41:06;;;;;;;9.63;8.37;;;19.50;99.90;;;;;;4901102;29;20405;-68
2022/07/19 02:43:32;;;;;;;10.40;8.77;;;19.50;99.90;;;;;;4899817;29;20604;-68
2022/07/19 02:45:57;;;;;;;10.43;8.77;;;19.40;99.90;;;;;;4899478;29;20400;-69
2022/07/19 02:48:23;;;;;;;9.77;8.73;;;19.40;99.90;;;;;;4899987;29;20406;-68
2022/07/19 02:50:48;;;;;;;12.77;8.40;;;19.40;99.90;;;;;;4899801;29;20468;-68
2022/07/19 02:53:14;;;;;;;10.37;8.77;;;19.40;99.90;;;;;;4898687;29;20440;-68
2022/07/19 02:55:40;;;;;;;9.93;8.18;;;19.40;99.90;;;;;;4899349;29;20405;-68
2022/07/19 02:58:05;;;;;;;10.23;8.87;;;19.40;99.90;;;;;;4900893;29;20576;-69
2022/07/19 03:00:31;;;;;;;11.77;8.77;;;19.30;99.90;;;;;;4901930;29;20447;-68
2022/07/19 03:05:43;;;;;;;11.57;8.90;;;19.20;99.90;;;;;;4917381;29;20430;-69
2022/07/19 03:08:08;;;;;;;10.03;8.57;;;19.20;99.90;;;;;;4916715;29;20455;-68
2022/07/19 03:10:34;;;;;;;9.87;8.50;;;19.10;99.90;;;;;;4917297;29;20523;-68
2022/07/19 03:12:59;;;;;;;9.43;8.20;;;19.10;99.90;;;;;;4900718;29;20408;-69
2022/07/19 03:15:25;;;;;;;11.63;8.70;;;19.00;99.90;;;;;;4900994;29;20406;-69
2022/07/19 03:17:50;;;;;;;9.68;8.43;;;19.00;99.90;;;;;;4917272;29;20415;-68
2022/07/19 03:20:16;;;;;;;10.93;8.50;;;18.90;99.90;;;;;;4914786;29;20430;-68
2022/07/19 03:22:42;;;;;;;9.68;8.13;;;18.90;99.90;;;;;;4898196;29;20508;-69
2022/07/19 03:25:08;;;;;;;12.10;8.50;;;18.90;99.90;;;;;;4928881;29;20420;-68
2022/07/19 03:27:34;;;;;;;11.45;8.30;;;18.90;99.90;;;;;;4898374;29;20865;-68
2022/07/19 03:30:00;;;;;;;11.48;8.48;;;19.00;99.90;;;;;;4897248;29;20397;-68
2022/07/19 03:32:25;;;;;;;10.65;8.48;;;19.00;99.90;;;;;;4913179;29;20404;-68
2022/07/19 03:34:51;;;;;;;9.33;8.30;;;18.90;99.90;;;;;;4913569;29;20481;-68
2022/07/19 03:37:16;;;;;;;9.43;8.30;;;18.90;99.90;;;;;;4898270;29;20670;-68
2022/07/19 03:39:42;;;;;;;9.67;7.90;;;18.80;99.90;;;;;;4899112;29;20429;-68
2022/07/19 03:42:07;;;;;;;9.67;8.07;;;18.80;99.90;;;;;;4901284;29;20512;-68
2022/07/19 03:44:33;;;;;;;9.50;8.00;;;18.80;99.90;;;;;;4917972;29;20393;-68
2022/07/19 03:46:58;;;;;;;11.17;8.47;;;18.80;99.90;;;;;;4899618;29;20409;-68
2022/07/19 03:49:24;;;;;;;9.80;8.30;;;18.80;99.90;;;;;;4901733;29;20455;-68
2022/07/19 03:51:50;;;;;;;9.33;7.80;;;18.80;99.90;;;;;;4901623;29;20754;-69
2022/07/19 03:54:15;;;;;;;9.85;7.68;;;18.90;99.90;;;;;;4901142;29;20417;-68
2022/07/19 03:56:41;;;;;;;9.30;8.27;;;18.90;99.90;;;;;;4917379;29;20488;-68
2022/07/19 03:59:06;;;;;;;9.32;7.57;;;18.90;99.90;;;;;;4899817;29;20421;-68
2022/07/19 04:01:32;;;;;;;11.13;8.10;;;18.90;99.90;;;;;;4898837;29;20452;-68
2022/07/19 04:03:57;;;;;;;9.60;7.63;;;18.90;99.90;;;;;;4915056;29;20393;-68
2022/07/19 04:06:23;;;;;;;10.33;8.17;;;18.90;99.90;;;;;;4896584;29;20413;-69
2022/07/19 04:08:48;;;;;;;8.82;7.93;;;19.00;99.90;;;;;;4895951;29;20723;-68
2022/07/19 04:11:14;;;;;;;9.57;7.70;;;19.00;99.90;;;;;;4912713;29;20416;-68
2022/07/19 04:13:40;;;;;;;8.32;7.32;;;19.00;99.90;;;;;;4893932;29;20720;-68
2022/07/19 04:16:05;;;;;;;9.40;7.67;;;19.00;99.90;;;;;;4892136;29;20594;-68
2022/07/19 04:18:31;;;;;;;9.63;7.93;;;19.10;99.90;;;;;;4891153;29;20417;-68
2022/07/19 04:20:57;;;;;;;9.27;7.65;;;19.10;99.90;;;;;;4888838;29;20460;-68
2022/07/19 04:23:22;;;;;;;8.68;7.55;;;19.10;99.90;;;;;;4908796;29;20922;-68
2022/07/19 04:25:48;;;;;;;8.63;7.60;;;19.10;99.90;;;;;;4892633;29;20663;-68
2022/07/19 04:28:13;;;;;;;9.93;7.93;;;19.20;99.90;;;;;;4911385;29;20505;-68
2022/07/19 04:30:39;;;;;;;9.07;7.93;;;19.20;99.90;;;;;;4924981;29;20397;-69
2022/07/19 04:33:05;;;;;;;10.45;8.27;;;19.20;99.90;;;;;;4910677;29;20543;-68
2022/07/19 04:35:30;;;;;;;9.02;7.50;;;19.20;99.90;;;;;;4895806;29;20401;-68
2022/07/19 04:37:56;;;;;;;8.43;7.37;;;19.20;99.90;;;;;;4928364;29;20825;-69
2022/07/19 04:40:21;;;;;;;8.95;7.80;;;19.20;99.90;;;;;;4896267;29;20468;-68
2022/07/19 04:42:47;;;;;;;8.60;7.33;;;19.20;99.90;;;;;;4898255;29;20401;-68
2022/07/19 04:45:13;;;;;;;8.15;7.15;;;19.30;99.90;;;;;;4897117;29;20400;-68
2022/07/19 04:47:38;;;;;;;9.70;7.03;;;19.30;99.90;;;;;;4898270;29;20401;-68
2022/07/19 04:50:05;;;;;;;9.20;7.40;;;19.30;99.90;;;;;;4898843;29;20468;-68
2022/07/19 04:52:30;;;;;;;10.68;7.65;;;19.40;99.90;;;;;;4914254;29;20472;-68
2022/07/19 04:54:56;;;;;;;10.10;7.70;;;19.40;99.90;;;;;;4896594;29;20401;-68
2022/07/19 04:57:21;;;;;;;8.87;7.17;;;19.40;99.90;;;;;;4897084;29;20412;-68
2022/07/19 04:59:47;;;;;;;10.23;7.38;;;19.50;99.90;;;;;;4896133;29;20521;-68
2022/07/19 05:02:12;;;;;;;11.07;7.80;;;19.50;99.90;;;;;;4896116;29;20877;-68
2022/07/19 05:04:38;;;;;;;9.27;7.40;;;19.60;99.90;;;;;;4894652;29;20468;-68
2022/07/19 05:07:04;;;;;;;8.05;6.88;;;19.60;99.90;;;;;;4893457;29;20702;-68
2022/07/19 05:09:30;;;;;;;8.38;7.15;;;19.60;99.90;;;;;;4894486;29;20994;-68
2022/07/19 05:11:58;;;;;;;8.00;7.00;;;19.70;99.90;;;;;;4893593;29;20417;-69
2022/07/19 05:14:24;;;;;;;9.68;7.82;;;19.70;99.90;;;;;;4892207;29;20406;-68
2022/07/19 05:16:49;;;;;;;9.43;8.03;;;19.70;99.90;;;;;;4890257;29;20405;-69
2022/07/19 05:19:16;;;;;;;8.33;7.37;;;19.80;99.90;;;;;;4909093;29;20498;-69
2022/07/19 05:21:42;;;;;;;8.47;7.43;;;19.80;99.90;;;;;;4910273;29;20413;-68
2022/07/19 05:24:07;;;;;;;7.80;7.00;;;19.80;99.90;;;;;;4896964;29;20398;-68
2022/07/19 05:26:33;;;;;;;8.80;7.43;;;19.90;99.90;;;;;;4898771;29;20407;-68
2022/07/19 05:28:59;;;;;;;10.10;7.80;;;19.90;99.90;;;;;;4915795;29;20460;-69
2022/07/19 05:31:26;;;;;;;8.13;7.32;;;19.90;99.90;;;;;;4898856;29;20717;-68
2022/07/19 05:33:52;;;;;;;8.52;7.05;;;19.90;99.90;;;;;;4899052;29;20389;-68
2022/07/19 05:36:18;;;;;;;7.30;6.53;;;20.00;99.90;;;;;;4916862;29;20401;-68
2022/07/19 05:38:46;;;;;;;7.40;6.60;;;20.00;99.90;;;;;;4896528;29;20463;-68
2022/07/19 05:41:12;;;;;;;7.10;6.40;;;20.10;99.90;;;;;;4911286;29;20429;-68
2022/07/19 05:43:38;;;;;;;7.03;6.32;;;20.10;99.90;;;;;;4927639;29;20440;-68
2022/07/19 05:46:04;;;;;;;6.85;6.15;;;20.20;99.90;;;;;;4926689;29;20936;-68
2022/07/19 05:48:31;;;;;;;7.18;6.35;;;20.20;99.90;;;;;;4894965;29;20438;-68
2022/07/19 05:50:57;;;;;;;7.35;6.05;;;20.30;99.90;;;;;;4893611;29;20392;-68
2022/07/19 05:53:42;;;;;;;7.32;6.20;;;20.30;99.90;;;;;;4892273;29;20708;-68
2022/07/19 05:56:08;;;;;;;6.28;5.40;;;20.40;99.90;;;;;;4910624;29;20521;-68
2022/07/19 05:58:34;;;;;;;7.10;5.47;;;20.40;99.90;;;;;;4890765;29;20473;-68
2022/07/19 06:01:19;;;;;;;5.53;5.03;;;20.50;99.90;;;;;;4890670;29;20702;-68
2022/07/19 06:03:51;;;;;;;5.93;4.97;;;20.60;99.90;;;;;;4906792;29;20409;-69
2022/07/19 06:06:17;;;;;;;4.88;4.30;;;20.60;99.90;;;;;;4888889;29;20627;-69
2022/07/19 06:08:43;;;;;;;6.10;5.47;;;20.70;99.90;;;;;;4907494;29;20393;-68
2022/07/19 06:11:10;;;;;;;5.25;4.75;;;20.70;99.90;;;;;;4889483;29;20416;-68
2022/07/19 06:13:36;;;;;;;5.63;4.82;;;20.80;99.90;;;;;;4905754;29;20601;-69
2022/07/19 06:16:02;;;;;;;6.43;4.70;;;20.80;99.90;;;;;;4888208;29;20397;-68
2022/07/19 06:18:33;;;;;;;7.45;5.50;;;20.90;99.90;;;;;;4885909;29;20445;-68
2022/07/19 06:21:15;;;;;;;6.23;4.53;;;20.90;99.90;;;;;;4885680;29;20421;-68
2022/07/19 06:23:42;;;;;;;6.17;4.50;;;21.00;99.90;;;;;;4904170;29;20727;-69
2022/07/19 06:26:08;;;;;;;5.73;4.70;;;21.00;99.90;;;;;;4889700;29;20869;-68
2022/07/19 06:28:38;;;;;;;5.25;4.75;;;21.10;99.90;;;;;;4890707;29;20538;-68
2022/07/19 06:31:06;;;;;;;4.88;4.38;;;21.10;99.90;;;;;;4891219;29;20432;-68
2022/07/19 06:33:31;;;;;;;5.95;4.63;;;21.20;99.90;;;;;;4922118;29;20864;-68
2022/07/19 06:35:57;;;;;;;4.70;4.30;;;21.20;99.90;;;;;;4921215;29;20385;-69
2022/07/19 06:38:23;;;;;;;5.53;4.78;;;21.30;99.90;;;;;;4889273;29;20417;-68
2022/07/19 06:40:48;;;;;;;5.27;4.57;;;21.30;99.90;;;;;;4887927;29;20420;-68
2022/07/19 06:43:14;;;;;;;6.32;4.80;;;21.30;99.90;;;;;;4905794;29;20397;-68
2022/07/19 06:45:40;;;;;;;5.63;4.37;;;21.40;99.90;;;;;;4888068;29;20654;-68
2022/07/19 06:48:06;;;;;;;5.78;4.70;;;21.40;99.90;;;;;;4884232;29;20450;-69
2022/07/19 06:50:32;;;;;;;7.95;6.03;;;21.50;99.90;;;;;;4883856;29;20393;-68
2022/07/19 06:52:57;;;;;;;8.85;5.47;;;21.50;99.90;;;;;;4901732;29;20404;-68
2022/07/19 06:55:24;;;;;;;9.43;5.57;;;21.50;99.90;;;;;;4904759;29;20920;-68
2022/07/19 06:57:49;;;;;;;11.77;6.35;;;21.60;99.90;;;;;;4890393;29;20898;-68
2022/07/19 07:00:15;;;;;;;10.82;6.43;;;21.70;99.90;;;;;;4906955;29;20496;-68
2022/07/19 07:02:41;;;;;;;10.33;5.97;;;21.80;99.90;;;;;;4889006;29;20406;-68
2022/07/19 07:05:08;;;;;;;10.30;6.17;;;21.90;99.90;;;;;;4891432;29;20417;-69
2022/07/19 07:07:34;;;;;;;7.57;5.57;;;21.90;99.90;;;;;;4908045;29;20389;-68
2022/07/19 07:10:01;;;;;;;12.30;6.13;;;22.00;99.90;;;;;;4890935;29;20781;-68
2022/07/19 07:12:27;;;;;;;8.52;5.75;;;22.10;99.90;;;;;;4889439;29;20651;-68
2022/07/19 07:14:53;;;;;;;6.53;5.07;;;22.10;99.90;;;;;;4904770;29;20544;-68
2022/07/19 07:17:19;;;;;;;5.47;4.63;;;22.20;99.90;;;;;;4886497;29;20476;-68
2022/07/19 07:19:44;;;;;;;7.85;5.80;;;22.30;99.90;;;;;;4888383;29;20412;-68
2022/07/19 07:22:10;;;;;;;6.97;5.10;;;22.30;99.90;;;;;;4887406;29;20416;-68
2022/07/19 07:24:36;;;;;;;9.93;5.95;;;22.40;99.90;;;;;;4887165;29;20405;-68
2022/07/19 07:27:01;;;;;;;6.90;5.13;;;22.50;99.90;;;;;;4903919;29;20682;-68
2022/07/19 07:29:27;;;;;;;6.30;4.97;;;22.60;99.90;;;;;;4887636;29;20705;-68
2022/07/19 07:31:53;;;;;;;7.35;5.55;;;22.60;99.90;;;;;;4886211;29;20754;-68
2022/07/19 07:34:19;;;;;;;9.27;6.20;;;22.60;99.90;;;;;;4883623;29;20603;-68
2022/07/19 07:36:44;;;;;;;6.90;5.50;;;22.70;99.90;;;;;;4902623;29;20405;-68
2022/07/19 07:39:11;;;;;;;11.13;5.65;;;22.80;99.90;;;;;;4918239;29;20508;-68
2022/07/19 07:41:37;;;;;;;11.98;7.22;;;22.90;99.90;;;;;;4887661;29;20655;-68
2022/07/19 07:44:03;;;;;;;8.00;5.80;;;23.00;99.90;;;;;;4902639;29;20432;-68
2022/07/19 07:46:28;;;;;;;9.27;5.95;;;23.00;99.90;;;;;;4886065;29;20397;-68
2022/07/19 07:48:56;;;;;;;7.22;5.20;;;23.10;99.90;;;;;;4886996;29;20658;-68
2022/07/19 07:51:22;;;;;;;10.77;6.60;;;23.20;99.90;;;;;;4889365;29;20412;-68
2022/07/19 07:53:48;;;;;;;8.07;5.27;;;23.20;99.90;;;;;;4887624;29;20987;-68
2022/07/19 07:56:13;;;;;;;5.50;4.70;;;23.30;99.90;;;;;;4887798;29;20623;-68
2022/07/19 07:58:39;;;;;;;6.43;4.80;;;23.20;99.90;;;;;;4884549;29;20837;-68
2022/07/19 08:01:05;;;;;;;12.27;7.25;;;23.20;99.90;;;;;;4883493;29;20406;-68
2022/07/19 08:03:30;;;;;;;9.82;6.50;;;23.20;99.90;;;;;;4884145;29;20394;-68
2022/07/19 08:05:57;;;;;;;11.33;5.70;;;23.30;99.90;;;;;;4901023;29;20402;-68
2022/07/19 08:08:26;;;;;;;7.50;5.38;;;23.30;99.90;;;;;;4898160;29;20385;-68
2022/07/19 08:10:56;;;;;;;22.00;10.63;;;23.30;99.90;;;;;;4879437;29;20451;-68
2022/07/19 08:13:22;;;;;;;15.75;8.02;;;23.40;99.90;;;;;;4896805;29;20682;-67
2022/07/19 08:15:49;;;;;;;7.32;5.43;;;23.50;99.90;;;;;;4903767;29;20427;-67
2022/07/19 08:18:14;;;;;;;10.60;6.80;;;23.60;99.90;;;;;;4888050;29;20416;-67
2022/07/19 08:20:40;;;;;;;7.63;6.22;;;23.70;99.90;;;;;;4883426;29;20417;-67
2022/07/19 08:23:06;;;;;;;6.75;4.93;;;23.80;99.90;;;;;;4885694;29;20405;-67
2022/07/19 08:25:34;;;;;;;9.60;5.23;;;23.80;99.90;;;;;;4886459;29;20414;-67
2022/07/19 08:28:01;;;;;;;9.83;5.57;;;23.90;99.90;;;;;;4906225;29;20409;-67
2022/07/19 08:30:27;;;;;;;5.20;4.70;;;24.10;99.90;;;;;;4907361;29;20385;-68
2022/07/19 08:32:53;;;;;;;5.13;4.60;;;24.20;99.90;;;;;;4891733;29;20419;-65
2022/07/19 08:35:18;;;;;;;6.20;4.53;;;24.30;99.90;;;;;;4889174;29;20453;-65
2022/07/19 08:37:44;;;;;;;5.23;4.43;;;24.30;99.90;;;;;;4891533;29;20401;-65
2022/07/19 08:40:10;;;;;;;5.15;4.65;;;24.40;99.90;;;;;;4910427;29;20436;-65
2022/07/19 08:42:36;;;;;;;5.18;4.60;;;24.50;99.90;;;;;;4892161;29;20488;-66
2022/07/19 08:45:05;;;;;;;6.55;4.47;;;24.60;99.90;;;;;;4889912;29;20474;-65
2022/07/19 08:47:31;;;;;;;7.07;4.40;;;24.60;99.90;;;;;;4888729;29;20412;-66
2022/07/19 08:49:59;;;;;;;5.70;4.32;;;24.60;99.90;;;;;;4888575;29;20399;-66
2022/07/19 08:52:25;;;;;;;4.68;3.95;;;24.60;99.90;;;;;;4887307;29;20549;-66
2022/07/19 08:54:50;;;;;;;5.90;4.28;;;24.70;99.90;;;;;;4905542;29;20420;-66
2022/07/19 09:00:03;;;;;;;12.15;4.47;;;24.70;99.90;;;;;;4911110;29;20549;-66
2022/07/19 09:02:28;;;;;;;5.35;4.45;;;24.80;99.90;;;;;;4893850;29;20393;-66
2022/07/19 09:05:02;;;;;;;4.70;4.00;;;24.80;99.90;;;;;;4909978;29;20397;-66
2022/07/19 09:07:27;;;;;;;5.90;4.50;;;24.90;99.90;;;;;;4893467;29;20436;-66
2022/07/19 09:10:17;;;;;;;8.85;4.20;;;24.90;99.90;;;;;;4892781;29;20432;-66
2022/07/19 09:13:11;;;;;;;4.45;4.05;;;25.00;99.90;;;;;;4896440;29;20393;-66
2022/07/19 09:15:39;;;;;;;6.55;4.43;;;25.10;99.90;;;;;;4897653;29;20401;-66
2022/07/19 09:18:07;;;;;;;7.22;4.18;;;25.30;99.90;;;;;;4929836;29;20456;-66
2022/07/19 09:20:33;;;;;;;5.90;4.38;;;25.40;99.90;;;;;;4899206;29;20476;-66
2022/07/19 09:23:01;;;;;;;4.57;3.60;;;25.30;99.90;;;;;;4915505;29;20714;-66
2022/07/19 09:25:50;;;;;;;6.65;4.28;;;25.40;99.90;;;;;;4896613;29;20512;-66
2022/07/19 09:28:17;;;;;;;7.57;5.35;;;25.40;99.90;;;;;;4894580;29;20488;-65
2022/07/19 09:30:52;;;;;;;7.20;4.97;;;25.00;99.90;;;;;;4895862;29;20540;-65
2022/07/19 09:33:20;;;;;;;7.63;5.38;;;24.90;99.90;;;;;;4910727;29;20393;-66
2022/07/19 09:35:58;;;;;;;5.43;4.15;;;25.00;99.90;;;;;;4891793;29;20809;-66
2022/07/19 09:38:27;;;;;;;8.05;4.63;;;25.10;99.90;;;;;;4893088;29;20409;-66
2022/07/19 09:41:08;;;;;;;4.65;3.95;;;25.20;99.90;;;;;;4890899;29;20471;-66
2022/07/19 09:43:52;;;;;;;5.72;4.18;;;25.30;99.90;;;;;;4908207;29;20404;-66
2022/07/19 09:46:33;;;;;;;7.00;4.47;;;25.70;99.90;;;;;;4926270;29;20416;-66
2022/07/19 09:49:17;;;;;;;5.30;4.20;;;25.80;99.90;;;;;;4895534;29;20412;-66
2022/07/19 09:51:45;;;;;;;4.93;4.05;;;26.00;99.90;;;;;;4913921;29;20797;-66
2022/07/19 09:54:13;;;;;;;4.80;3.95;;;26.10;99.90;;;;;;4898112;29;20468;-66
2022/07/19 09:56:41;;;;;;;4.00;3.60;;;26.10;99.90;;;;;;4898118;29;20492;-66
2022/07/19 09:59:06;;;;;;;5.07;3.83;;;26.20;99.90;;;;;;4911641;29;20820;-66
2022/07/19 10:01:33;;;;;;;3.83;3.45;;;26.40;99.90;;;;;;4911212;29;20509;-66
2022/07/19 10:04:21;;;;;;;4.05;3.63;;;26.40;99.90;;;;;;4894573;29;20463;-66
2022/07/19 10:06:49;;;;;;;4.88;3.70;;;26.40;99.90;;;;;;4894816;29;20810;-66
2022/07/19 10:09:18;;;;;;;5.38;3.90;;;26.60;99.90;;;;;;4892073;29;20413;-66
2022/07/19 10:11:44;;;;;;;5.55;3.60;;;26.60;99.90;;;;;;4893488;29;20477;-66
2022/07/19 10:14:11;;;;;;;4.75;3.50;;;26.60;99.90;;;;;;4908896;29;20413;-66
2022/07/19 10:16:50;;;;;;;3.92;3.38;;;26.70;99.90;;;;;;4909490;29;20467;-66
2022/07/19 10:19:28;;;;;;;4.23;3.53;;;26.70;99.90;;;;;;4892901;29;20829;-65
2022/07/19 10:21:54;;;;;;;4.75;3.80;;;26.80;99.90;;;;;;4925554;29;20410;-66
2022/07/19 10:24:43;;;;;;;4.37;3.57;;;26.80;99.90;;;;;;4893877;29;20437;-66
2022/07/19 10:27:09;;;;;;;5.18;3.35;;;26.70;99.90;;;;;;4923023;29;20397;-66
2022/07/19 10:29:35;;;;;;;3.35;3.05;;;26.80;99.90;;;;;;4924492;29;20468;-66
2022/07/19 10:32:04;;;;;;;4.80;3.50;;;26.80;99.90;;;;;;4894378;29;20765;-66
2022/07/19 10:34:30;;;;;;;3.38;2.95;;;26.90;99.90;;;;;;4927253;29;20396;-66
2022/07/19 10:36:56;;;;;;;3.30;2.73;;;27.00;99.90;;;;;;4913151;29;20401;-66
2022/07/19 10:39:34;;;;;;;4.20;2.90;;;27.00;99.90;;;;;;4895945;29;20431;-66
2022/07/19 10:42:07;;;;;;;3.75;2.67;;;27.10;99.90;;;;;;4911295;29;20811;-66
2022/07/19 10:44:34;;;;;;;3.60;2.10;;;27.20;99.90;;;;;;4927046;29;20408;-65
2022/07/19 10:47:00;;;;;;;3.78;2.42;;;27.30;99.90;;;;;;4894139;29;20491;-66
2022/07/19 10:49:46;;;;;;;2.30;2.10;;;27.30;99.90;;;;;;4893224;29;20417;-66
2022/07/19 10:52:27;;;;;;;3.03;2.72;;;27.40;99.90;;;;;;4893817;29;20408;-66
2022/07/19 10:55:17;;;;;;;3.80;2.58;;;27.40;99.90;;;;;;4924744;29;20531;-66
2022/07/19 10:57:47;;;;;;;2.63;2.20;;;27.40;99.90;;;;;;4909928;29;20476;-66
2022/07/19 11:00:26;;;;;;;2.83;2.40;;;27.50;99.20;;;;;;4895616;29;20841;-66
2022/07/19 11:03:12;;;;;;;3.80;1.80;;;27.50;99.20;;;;;;4896918;29;20404;-66
2022/07/19 11:05:46;;;;;;;7.93;1.48;;;27.70;95.50;;;;;;4895458;29;20424;-66
2022/07/19 11:08:11;;;;;;;2.03;1.85;;;27.90;94.70;;;;;;4892811;29;20461;-65
2022/07/19 11:10:37;;;;;;;2.50;2.30;;;27.90;96.70;;;;;;4907272;29;20403;-66
2022/07/19 11:13:02;;;;;;;3.60;2.33;;;28.00;97.50;;;;;;4890393;29;20695;-65
2022/07/19 11:15:28;;;;;;;4.30;2.58;;;28.00;98.30;;;;;;4889332;29;20464;-66
2022/07/19 11:17:56;;;;;;;3.23;2.40;;;28.00;98.10;;;;;;4886610;29;20405;-66
2022/07/19 11:20:24;;;;;;;2.30;1.80;;;27.90;97.40;;;;;;4903084;29;20925;-66
2022/07/19 11:22:50;;;;;;;3.92;1.70;;;28.00;95.10;;;;;;4900083;29;20838;-65
2022/07/19 11:25:41;;;;;;;3.25;2.45;;;28.00;95.10;;;;;;4886251;29;22447;-66
2022/07/19 11:28:18;;;;;;;4.07;2.40;;;28.10;96.70;;;;;;4883631;29;20555;-65
2022/07/19 11:30:44;;;;;;;2.47;2.28;;;28.10;98.00;;;;;;4903828;29;20385;-66
2022/07/19 11:33:09;;;;;;;3.50;2.43;;;28.20;98.40;;;;;;4888819;29;20401;-66
2022/07/19 11:35:35;;;;;;;3.85;2.33;;;28.40;97.50;;;;;;4892404;29;20404;-66
2022/07/19 11:38:03;;;;;;;3.10;2.17;;;28.50;97.00;;;;;;4909928;29;20476;-66
2022/07/19 11:40:35;;;;;;;4.55;2.53;;;28.50;97.70;;;;;;4886778;29;20523;-66
2022/07/19 11:43:07;;;;;;;4.07;2.33;;;28.70;97.30;;;;;;4898336;29;20689;-66
2022/07/19 11:45:48;;;;;;;3.10;2.60;;;28.90;96.40;;;;;;4880615;29;20405;-66
2022/07/19 11:48:24;;;;;;;3.50;2.70;;;29.20;96.80;;;;;;4899128;29;20485;-66
2022/07/19 11:51:01;;;;;;;4.90;2.80;;;29.50;96.30;;;;;;4899692;29;20575;-66
2022/07/19 11:53:27;;;;;;;4.50;3.13;;;29.60;96.00;;;;;;4882943;29;20409;-66
2022/07/19 11:55:52;;;;;;;3.17;2.80;;;29.70;96.60;;;;;;4900350;29;20505;-66
2022/07/19 11:58:21;;;;;;;4.03;2.87;;;29.90;97.30;;;;;;4879934;29;20828;-66
2022/07/19 12:00:47;;;;;;;3.83;2.80;;;30.20;95.70;;;;;;4878570;29;20513;-66
2022/07/19 12:03:18;;;;;;;3.27;2.63;;;30.40;96.00;;;;;;4892326;29;20454;-66
2022/07/19 12:05:56;;;;;;;3.25;2.42;;;30.60;96.30;;;;;;4876867;29;20432;-66
2022/07/19 12:08:30;;;;;;;3.15;2.50;;;30.80;95.20;;;;;;4909640;29;20408;-66
2022/07/19 12:10:56;;;;;;;6.07;2.70;;;30.90;96.80;;;;;;4878844;29;20400;-66
2022/07/19 12:13:35;;;;;;;3.27;2.53;;;31.10;95.40;;;;;;4880130;29;20408;-66
2022/07/19 12:16:08;;;;;;;3.63;3.08;;;31.00;95.10;;;;;;4879791;29;20543;-66
2022/07/19 12:18:55;;;;;;;3.03;2.30;;;31.20;95.30;;;;;;4881347;29;20417;-66
2022/07/19 12:21:28;;;;;;;3.10;2.28;;;31.50;95.40;;;;;;4913384;29;20425;-66
2022/07/19 12:24:19;;;;;;;2.88;2.60;;;31.70;95.70;;;;;;4898046;29;20595;-66
2022/07/19 12:26:53;;;;;;;3.15;2.38;;;31.80;93.80;;;;;;4898795;29;20389;-66
2022/07/19 12:29:24;;;;;;;2.42;2.22;;;31.90;91.60;;;;;;4912315;29;20404;-66
2022/07/19 12:31:51;;;;;;;2.67;2.35;;;32.00;91.70;;;;;;4913225;29;20401;-66
2022/07/19 12:34:17;;;;;;;3.22;2.30;;;32.00;91.20;;;;;;4897944;29;20397;-66
2022/07/19 12:36:43;;;;;;;2.40;1.95;;;32.20;92.00;;;;;;4882376;29;20736;-66
2022/07/19 12:39:23;;;;;;;2.50;2.30;;;32.40;91.90;;;;;;4897873;29;20484;-66
2022/07/19 12:41:52;;;;;;;3.28;2.17;;;32.50;89.90;;;;;;4880837;29;20890;-66
2022/07/19 12:44:18;;;;;;;2.97;2.30;;;32.60;90.50;;;;;;4913322;29;20393;-66
2022/07/19 12:46:43;;;;;;;2.75;2.00;;;32.80;92.10;;;;;;4883282;29;20405;-66
2022/07/19 12:49:10;;;;;;;2.00;1.63;;;32.90;87.80;;;;;;4881730;29;20476;-65
2022/07/19 12:51:35;;;;;;;2.45;1.98;;;33.00;87.30;;;;;;4897693;29;20777;-66
2022/07/19 12:54:01;;;;;;;2.10;1.90;;;33.20;85.50;;;;;;4899898;29;20405;-66